sensor_id;sensor_type;location;lat;lon;timestamp;pressure;altitude;pressure_sealevel;temperature;humidity
56992;BME280;42885;49.754;18.636;2022-07-10T00:02:06;98467.92;;;15.31;100.00
56992;BME280;42885;49.754;18.636;2022-07-10T00:04:37;98464.19;;;15.22;100.00
56992;BME280;42885;49.754;18.636;2022-07-10T00:07:08;98462.65;;;15.25;100.00
56992;BME280;42885;49.754;18.636;2022-07-10T00:09:39;98461.94;;;15.34;100.00
56992;BME280;42885;49.754;18.636;2022-07-10T00:12:10;98462.78;;;15.40;100.00
56992;BME280;42885;49.754;18.636;2022-07-10T00:14:41;98461.58;;;15.33;100.00
56992;BME280;42885;49.754;18.636;2022-07-10T00:17:13;98456.42;;;15.60;100.00
56992;BME280;42885;49.754;18.636;2022-07-10T00:19:44;98454.41;;;15.52;100.00
56992;BME280;42885;49.754;18.636;2022-07-10T00:22:15;98456.78;;;15.61;100.00
56992;BME280;42885;49.754;18.636;2022-07-10T00:24:46;98452.70;;;15.34;100.00
56992;BME280;42885;49.754;18.636;2022-07-10T00:27:17;98451.39;;;15.28;100.00
56992;BME280;42885;49.754;18.636;2022-07-10T00:29:48;98445.27;;;15.34;100.00
56992;BME280;42885;49.754;18.636;2022-07-10T00:32:19;98442.41;;;15.43;100.00
56992;BME280;42885;49.754;18.636;2022-07-10T00:34:50;98443.02;;;15.40;100.00
56992;BME280;42885;49.754;18.636;2022-07-10T00:37:22;98441.19;;;15.47;100.00
56992;BME280;42885;49.754;18.636;2022-07-10T00:39:53;98437.00;;;15.27;100.00
56992;BME280;42885;49.754;18.636;2022-07-10T00:42:25;98432.21;;;15.44;100.00
56992;BME280;42885;49.754;18.636;2022-07-10T00:44:56;98423.47;;;15.49;100.00
56992;BME280;42885;49.754;18.636;2022-07-10T00:47:27;98420.83;;;15.54;100.00
56992;BME280;42885;49.754;18.636;2022-07-10T00:49:58;98415.91;;;15.55;100.00
56992;BME280;42885;49.754;18.636;2022-07-10T00:52:29;98414.83;;;15.58;100.00
56992;BME280;42885;49.754;18.636;2022-07-10T00:55:00;98419.50;;;15.37;100.00
56992;BME280;42885;49.754;18.636;2022-07-10T00:57:32;98415.53;;;15.43;100.00
56992;BME280;42885;49.754;18.636;2022-07-10T01:00:04;98417.70;;;15.44;100.00
56992;BME280;42885;49.754;18.636;2022-07-10T01:02:35;98406.19;;;15.67;100.00
56992;BME280;42885;49.754;18.636;2022-07-10T01:05:06;98406.28;;;15.72;100.00
56992;BME280;42885;49.754;18.636;2022-07-10T01:07:37;98410.01;;;15.63;100.00
56992;BME280;42885;49.754;18.636;2022-07-10T01:10:09;98401.52;;;15.65;100.00
56992;BME280;42885;49.754;18.636;2022-07-10T01:12:40;98396.38;;;15.52;100.00
56992;BME280;42885;49.754;18.636;2022-07-10T01:15:11;98396.23;;;15.54;100.00
56992;BME280;42885;49.754;18.636;2022-07-10T01:17:42;98391.41;;;15.71;100.00
56992;BME280;42885;49.754;18.636;2022-07-10T01:20:13;98401.62;;;15.69;100.00
56992;BME280;42885;49.754;18.636;2022-07-10T01:22:45;98396.84;;;15.69;100.00
56992;BME280;42885;49.754;18.636;2022-07-10T01:25:16;98395.13;;;15.68;100.00
56992;BME280;42885;49.754;18.636;2022-07-10T01:27:47;98396.23;;;15.71;100.00
56992;BME280;42885;49.754;18.636;2022-07-10T01:30:18;98391.41;;;15.71;100.00
56992;BME280;42885;49.754;18.636;2022-07-10T01:32:50;98399.31;;;15.76;100.00
56992;BME280;42885;49.754;18.636;2022-07-10T01:35:23;98393.59;;;15.71;100.00
56992;BME280;42885;49.754;18.636;2022-07-10T01:37:54;98388.66;;;15.72;100.00
56992;BME280;42885;49.754;18.636;2022-07-10T01:40:25;98389.48;;;15.73;100.00
56992;BME280;42885;49.754;18.636;2022-07-10T01:42:57;98387.45;;;15.71;100.00
56992;BME280;42885;49.754;18.636;2022-07-10T01:45:28;98385.91;;;15.62;100.00
56992;BME280;42885;49.754;18.636;2022-07-10T01:47:59;98381.48;;;15.51;100.00
56992;BME280;42885;49.754;18.636;2022-07-10T01:50:30;98378.84;;;15.68;100.00
56992;BME280;42885;49.754;18.636;2022-07-10T01:53:01;98377.26;;;15.72;100.00
56992;BME280;42885;49.754;18.636;2022-07-10T01:55:34;98376.28;;;15.84;100.00
56992;BME280;42885;49.754;18.636;2022-07-10T01:58:05;98372.95;;;15.71;100.00
56992;BME280;42885;49.754;18.636;2022-07-10T02:00:36;98374.28;;;15.65;100.00
56992;BME280;42885;49.754;18.636;2022-07-10T02:03:07;98376.06;;;15.76;100.00
56992;BME280;42885;49.754;18.636;2022-07-10T02:05:56;98374.04;;;15.74;100.00
56992;BME280;42885;49.754;18.636;2022-07-10T02:08:27;98374.88;;;15.68;100.00
56992;BME280;42885;49.754;18.636;2022-07-10T02:10:58;98374.52;;;15.67;100.00
56992;BME280;42885;49.754;18.636;2022-07-10T02:13:30;98373.09;;;15.58;100.00
56992;BME280;42885;49.754;18.636;2022-07-10T02:16:01;98367.86;;;15.40;100.00
56992;BME280;42885;49.754;18.636;2022-07-10T02:18:32;98365.92;;;15.43;100.00
56992;BME280;42885;49.754;18.636;2022-07-10T02:21:03;98360.16;;;15.43;100.00
56992;BME280;42885;49.754;18.636;2022-07-10T02:23:35;98358.73;;;15.39;100.00
56992;BME280;42885;49.754;18.636;2022-07-10T02:26:06;98357.89;;;15.33;100.00
56992;BME280;42885;49.754;18.636;2022-07-10T02:28:38;98360.43;;;15.28;100.00
56992;BME280;42885;49.754;18.636;2022-07-10T02:31:09;98358.00;;;15.31;100.00
56992;BME280;42885;49.754;18.636;2022-07-10T02:33:40;98352.98;;;15.28;100.00
56992;BME280;42885;49.754;18.636;2022-07-10T02:36:11;98358.39;;;15.32;100.00
56992;BME280;42885;49.754;18.636;2022-07-10T02:38:42;98361.14;;;15.31;100.00
56992;BME280;42885;49.754;18.636;2022-07-10T02:41:13;98357.53;;;15.37;100.00
56992;BME280;42885;49.754;18.636;2022-07-10T02:43:44;98359.33;;;15.25;100.00
56992;BME280;42885;49.754;18.636;2022-07-10T02:46:15;98357.66;;;15.30;100.00
56992;BME280;42885;49.754;18.636;2022-07-10T02:48:45;98355.63;;;15.28;100.00
56992;BME280;42885;49.754;18.636;2022-07-10T02:51:17;98356.11;;;15.33;100.00
56992;BME280;42885;49.754;18.636;2022-07-10T02:53:48;98350.48;;;15.32;100.00
56992;BME280;42885;49.754;18.636;2022-07-10T02:56:19;98349.16;;;15.32;100.00
56992;BME280;42885;49.754;18.636;2022-07-10T02:58:50;98347.48;;;15.20;100.00
56992;BME280;42885;49.754;18.636;2022-07-10T03:01:22;98359.59;;;15.17;100.00
56992;BME280;42885;49.754;18.636;2022-07-10T03:03:53;98351.80;;;15.09;100.00
56992;BME280;42885;49.754;18.636;2022-07-10T03:06:24;98348.55;;;15.17;100.00
56992;BME280;42885;49.754;18.636;2022-07-10T03:08:55;98352.63;;;15.04;100.00
56992;BME280;42885;49.754;18.636;2022-07-10T03:11:26;98357.30;;;15.06;100.00
56992;BME280;42885;49.754;18.636;2022-07-10T03:13:57;98355.64;;;15.17;100.00
56992;BME280;42885;49.754;18.636;2022-07-10T03:16:28;98354.19;;;15.07;100.00
56992;BME280;42885;49.754;18.636;2022-07-10T03:18:59;98354.78;;;15.22;100.00
56992;BME280;42885;49.754;18.636;2022-07-10T03:21:30;98345.56;;;15.10;100.00
56992;BME280;42885;49.754;18.636;2022-07-10T03:24:01;98348.80;;;15.20;100.00
56992;BME280;42885;49.754;18.636;2022-07-10T03:26:32;98348.32;;;15.26;100.00
56992;BME280;42885;49.754;18.636;2022-07-10T03:29:03;98354.06;;;15.20;100.00
56992;BME280;42885;49.754;18.636;2022-07-10T03:31:34;98349.53;;;15.27;100.00
56992;BME280;42885;49.754;18.636;2022-07-10T03:34:05;98347.84;;;15.32;100.00
56992;BME280;42885;49.754;18.636;2022-07-10T03:36:36;98349.16;;;15.32;100.00
56992;BME280;42885;49.754;18.636;2022-07-10T03:39:06;98342.92;;;15.16;100.00
56992;BME280;42885;49.754;18.636;2022-07-10T03:41:38;98341.27;;;15.04;100.00
56992;BME280;42885;49.754;18.636;2022-07-10T03:44:09;98346.05;;;14.93;100.00
56992;BME280;42885;49.754;18.636;2022-07-10T03:46:40;98341.98;;;15.06;100.00
56992;BME280;42885;49.754;18.636;2022-07-10T03:49:11;98337.19;;;15.17;100.00
56992;BME280;42885;49.754;18.636;2022-07-10T03:51:42;98339.83;;;15.11;100.00
56992;BME280;42885;49.754;18.636;2022-07-10T03:54:14;98338.73;;;15.25;100.00
56992;BME280;42885;49.754;18.636;2022-07-10T03:56:45;98334.05;;;15.23;100.00
56992;BME280;42885;49.754;18.636;2022-07-10T03:59:34;98331.30;;;15.19;100.00
56992;BME280;42885;49.754;18.636;2022-07-10T04:02:05;98333.59;;;15.18;100.00
56992;BME280;42885;49.754;18.636;2022-07-10T04:04:36;98334.42;;;15.12;100.00
56992;BME280;42885;49.754;18.636;2022-07-10T04:07:07;98333.95;;;15.13;100.00
56992;BME280;42885;49.754;18.636;2022-07-10T04:09:40;98329.75;;;15.10;100.00
56992;BME280;42885;49.754;18.636;2022-07-10T04:12:11;98327.83;;;15.07;100.00
56992;BME280;42885;49.754;18.636;2022-07-10T04:14:42;98330.95;;;15.18;100.00
56992;BME280;42885;49.754;18.636;2022-07-10T04:17:13;98325.56;;;15.19;100.00
56992;BME280;42885;49.754;18.636;2022-07-10T04:19:44;98327.34;;;15.41;100.00
56992;BME280;42885;49.754;18.636;2022-07-10T04:22:15;98329.25;;;15.34;100.00
56992;BME280;42885;49.754;18.636;2022-07-10T04:24:46;98325.05;;;15.43;100.00
56992;BME280;42885;49.754;18.636;2022-07-10T04:27:17;98330.09;;;15.34;100.00
56992;BME280;42885;49.754;18.636;2022-07-10T04:29:49;98323.73;;;15.31;100.00
56992;BME280;42885;49.754;18.636;2022-07-10T04:32:20;98329.97;;;15.41;100.00
56992;BME280;42885;49.754;18.636;2022-07-10T04:34:51;98329.97;;;15.30;100.00
56992;BME280;42885;49.754;18.636;2022-07-10T04:37:22;98329.00;;;15.31;100.00
56992;BME280;42885;49.754;18.636;2022-07-10T04:39:53;98327.34;;;15.36;100.00
56992;BME280;42885;49.754;18.636;2022-07-10T04:42:24;98327.94;;;15.28;100.00
56992;BME280;42885;49.754;18.636;2022-07-10T04:44:55;98326.52;;;15.30;100.00
56992;BME280;42885;49.754;18.636;2022-07-10T04:47:26;98326.98;;;15.29;100.00
56992;BME280;42885;49.754;18.636;2022-07-10T04:49:57;98327.70;;;15.20;100.00
56992;BME280;42885;49.754;18.636;2022-07-10T04:52:30;98332.15;;;15.25;100.00
56992;BME280;42885;49.754;18.636;2022-07-10T04:55:01;98330.34;;;15.20;100.00
56992;BME280;42885;49.754;18.636;2022-07-10T04:57:32;98334.06;;;15.28;100.00
56992;BME280;42885;49.754;18.636;2022-07-10T05:00:04;98329.88;;;15.20;100.00
56992;BME280;42885;49.754;18.636;2022-07-10T05:02:36;98331.64;;;15.31;100.00
56992;BME280;42885;49.754;18.636;2022-07-10T05:05:07;98330.83;;;15.25;100.00
56992;BME280;42885;49.754;18.636;2022-07-10T05:07:38;98334.55;;;15.17;100.00
56992;BME280;42885;49.754;18.636;2022-07-10T05:10:09;98330.23;;;15.16;100.00
56992;BME280;42885;49.754;18.636;2022-07-10T05:12:40;98334.77;;;15.31;100.00
56992;BME280;42885;49.754;18.636;2022-07-10T05:15:11;98337.44;;;15.19;100.00
56992;BME280;42885;49.754;18.636;2022-07-10T05:17:43;98346.17;;;15.08;100.00
56992;BME280;42885;49.754;18.636;2022-07-10T05:20:14;98339.45;;;14.98;100.00
56992;BME280;42885;49.754;18.636;2022-07-10T05:22:45;98359.22;;;14.93;100.00
56992;BME280;42885;49.754;18.636;2022-07-10T05:25:16;98348.18;;;14.93;100.00
56992;BME280;42885;49.754;18.636;2022-07-10T05:27:47;98360.29;;;14.96;100.00
56992;BME280;42885;49.754;18.636;2022-07-10T05:30:18;98346.87;;;15.16;100.00
56992;BME280;42885;49.754;18.636;2022-07-10T05:32:49;98344.23;;;15.22;100.00
56992;BME280;42885;49.754;18.636;2022-07-10T05:35:20;98356.80;;;15.47;100.00
56992;BME280;42885;49.754;18.636;2022-07-10T05:37:51;98356.20;;;15.54;100.00
56992;BME280;42885;49.754;18.636;2022-07-10T05:40:22;98354.87;;;15.60;100.00
56992;BME280;42885;49.754;18.636;2022-07-10T05:42:53;98351.81;;;15.93;100.00
56992;BME280;42885;49.754;18.636;2022-07-10T05:45:24;98346.40;;;16.01;100.00
56992;BME280;42885;49.754;18.636;2022-07-10T05:47:54;98344.81;;;16.04;100.00
56992;BME280;42885;49.754;18.636;2022-07-10T05:50:25;98350.27;;;15.79;100.00
56992;BME280;42885;49.754;18.636;2022-07-10T05:52:56;98342.38;;;15.74;100.00
56992;BME280;42885;49.754;18.636;2022-07-10T05:55:27;98340.28;;;15.89;100.00
56992;BME280;42885;49.754;18.636;2022-07-10T05:57:58;98349.68;;;15.76;100.00
56992;BME280;42885;49.754;18.636;2022-07-10T06:00:29;98350.30;;;15.62;100.00
56992;BME280;42885;49.754;18.636;2022-07-10T06:03:00;98355.14;;;16.07;100.00
56992;BME280;42885;49.754;18.636;2022-07-10T06:05:31;98345.28;;;16.09;100.00
56992;BME280;42885;49.754;18.636;2022-07-10T06:08:03;98339.30;;;16.55;100.00
56992;BME280;42885;49.754;18.636;2022-07-10T06:10:33;98343.53;;;16.52;100.00
56992;BME280;42885;49.754;18.636;2022-07-10T06:13:04;98345.89;;;16.34;100.00
56992;BME280;42885;49.754;18.636;2022-07-10T06:15:35;98349.80;;;16.18;100.00
56992;BME280;42885;49.754;18.636;2022-07-10T06:18:06;98352.73;;;16.04;100.00
56992;BME280;42885;49.754;18.636;2022-07-10T06:20:37;98343.64;;;15.96;100.00
56992;BME280;42885;49.754;18.636;2022-07-10T06:23:09;98340.39;;;16.04;100.00
56992;BME280;42885;49.754;18.636;2022-07-10T06:25:39;98338.73;;;15.86;100.00
56992;BME280;42885;49.754;18.636;2022-07-10T06:28:10;98346.64;;;15.86;100.00
56992;BME280;42885;49.754;18.636;2022-07-10T06:30:41;98343.48;;;15.54;100.00
56992;BME280;42885;49.754;18.636;2022-07-10T06:33:12;98351.31;;;15.27;100.00
56992;BME280;42885;49.754;18.636;2022-07-10T06:35:43;98353.95;;;15.27;100.00
56992;BME280;42885;49.754;18.636;2022-07-10T06:38:14;98352.52;;;15.34;100.00
56992;BME280;42885;49.754;18.636;2022-07-10T06:40:47;98356.70;;;15.25;100.00
56992;BME280;42885;49.754;18.636;2022-07-10T06:43:19;98355.98;;;15.29;100.00
56992;BME280;42885;49.754;18.636;2022-07-10T06:45:50;98356.70;;;15.25;100.00
56992;BME280;42885;49.754;18.636;2022-07-10T06:48:21;98355.87;;;15.02;100.00
56992;BME280;42885;49.754;18.636;2022-07-10T06:50:52;98350.02;;;15.16;100.00
56992;BME280;42885;49.754;18.636;2022-07-10T06:53:23;98356.58;;;14.98;100.00
56992;BME280;42885;49.754;18.636;2022-07-10T06:55:56;98352.77;;;15.03;100.00
56992;BME280;42885;49.754;18.636;2022-07-10T06:58:27;98354.80;;;15.10;100.00
56992;BME280;42885;49.754;18.636;2022-07-10T07:00:58;98364.48;;;15.04;100.00
56992;BME280;42885;49.754;18.636;2022-07-10T07:03:29;98368.69;;;14.95;100.00
56992;BME280;42885;49.754;18.636;2022-07-10T07:06:00;98366.88;;;14.96;100.00
56992;BME280;42885;49.754;18.636;2022-07-10T07:08:31;98371.79;;;14.89;100.00
56992;BME280;42885;49.754;18.636;2022-07-10T07:11:02;98370.86;;;15.07;100.00
56992;BME280;42885;49.754;18.636;2022-07-10T07:13:33;98363.19;;;15.21;100.00
56992;BME280;42885;49.754;18.636;2022-07-10T07:16:04;98365.09;;;15.31;100.00
56992;BME280;42885;49.754;18.636;2022-07-10T07:18:36;98367.34;;;15.47;100.00
56992;BME280;42885;49.754;18.636;2022-07-10T07:21:09;98363.97;;;15.56;100.00
56992;BME280;42885;49.754;18.636;2022-07-10T07:23:58;98360.61;;;15.60;100.00
56992;BME280;42885;49.754;18.636;2022-07-10T07:26:29;98367.80;;;15.63;100.00
56992;BME280;42885;49.754;18.636;2022-07-10T07:29:00;98364.79;;;15.68;100.00
56992;BME280;42885;49.754;18.636;2022-07-10T07:31:31;98362.31;;;15.61;100.00
56992;BME280;42885;49.754;18.636;2022-07-10T07:34:02;98364.88;;;16.01;100.00
56992;BME280;42885;49.754;18.636;2022-07-10T07:36:33;98365.28;;;16.65;100.00
56992;BME280;42885;49.754;18.636;2022-07-10T07:39:04;98355.28;;;17.53;100.00
56992;BME280;42885;49.754;18.636;2022-07-10T07:41:35;98358.77;;;17.38;100.00
56992;BME280;42885;49.754;18.636;2022-07-10T07:44:06;98361.58;;;16.84;100.00
56992;BME280;42885;49.754;18.636;2022-07-10T07:46:37;98365.41;;;17.06;100.00
56992;BME280;42885;49.754;18.636;2022-07-10T07:49:07;98359.39;;;17.36;100.00
56992;BME280;42885;49.754;18.636;2022-07-10T07:51:38;98349.28;;;17.86;100.00
56992;BME280;42885;49.754;18.636;2022-07-10T07:54:09;98358.52;;;18.21;100.00
56992;BME280;42885;49.754;18.636;2022-07-10T07:56:40;98354.48;;;18.07;100.00
56992;BME280;42885;49.754;18.636;2022-07-10T07:59:11;98349.08;;;17.93;100.00
56992;BME280;42885;49.754;18.636;2022-07-10T08:01:42;98346.53;;;17.21;100.00
56992;BME280;42885;49.754;18.636;2022-07-10T08:04:13;98351.97;;;16.83;100.00
56992;BME280;42885;49.754;18.636;2022-07-10T08:06:44;98353.59;;;17.11;100.00
56992;BME280;42885;49.754;18.636;2022-07-10T08:09:15;98353.80;;;17.44;100.00
56992;BME280;42885;49.754;18.636;2022-07-10T08:11:48;98353.51;;;17.83;100.00
56992;BME280;42885;49.754;18.636;2022-07-10T08:14:19;98356.23;;;17.97;100.00
56992;BME280;42885;49.754;18.636;2022-07-10T08:16:50;98359.77;;;18.27;100.00
56992;BME280;42885;49.754;18.636;2022-07-10T08:19:21;98352.22;;;18.52;100.00
56992;BME280;42885;49.754;18.636;2022-07-10T08:21:52;98349.78;;;18.54;100.00
56992;BME280;42885;49.754;18.636;2022-07-10T08:24:51;98352.39;;;18.40;100.00
56992;BME280;42885;49.754;18.636;2022-07-10T08:27:22;98343.11;;;18.40;100.00
56992;BME280;42885;49.754;18.636;2022-07-10T08:29:55;98347.47;;;17.96;100.00
56992;BME280;42885;49.754;18.636;2022-07-10T08:32:31;98346.61;;;18.31;100.00
56992;BME280;42885;49.754;18.636;2022-07-10T08:35:02;98347.34;;;18.37;100.00
56992;BME280;42885;49.754;18.636;2022-07-10T08:37:41;98344.78;;;18.41;100.00
56992;BME280;42885;49.754;18.636;2022-07-10T08:40:14;98348.03;;;18.59;100.00
56992;BME280;42885;49.754;18.636;2022-07-10T08:42:45;98346.45;;;18.42;100.00
56992;BME280;42885;49.754;18.636;2022-07-10T08:45:16;98339.27;;;18.29;100.00
56992;BME280;42885;49.754;18.636;2022-07-10T08:47:48;98335.63;;;18.50;100.00
56992;BME280;42885;49.754;18.636;2022-07-10T08:50:24;98332.56;;;18.44;100.00
56992;BME280;42885;49.754;18.636;2022-07-10T08:55:46;98333.80;;;18.84;100.00
56992;BME280;42885;49.754;18.636;2022-07-10T08:58:19;98323.36;;;19.20;100.00
56992;BME280;42885;49.754;18.636;2022-07-10T09:00:50;98320.11;;;19.40;100.00
56992;BME280;42885;49.754;18.636;2022-07-10T09:03:22;98326.38;;;18.97;100.00
56992;BME280;42885;49.754;18.636;2022-07-10T09:05:53;98315.95;;;19.00;100.00
56992;BME280;42885;49.754;18.636;2022-07-10T09:08:25;98310.84;;;19.12;100.00
56992;BME280;42885;49.754;18.636;2022-07-10T09:11:16;98308.25;;;19.31;100.00
56992;BME280;42885;49.754;18.636;2022-07-10T09:13:53;98316.45;;;18.99;100.00
56992;BME280;42885;49.754;18.636;2022-07-10T09:16:31;98309.03;;;18.65;100.00
56992;BME280;42885;49.754;18.636;2022-07-10T09:22:08;98318.92;;;18.39;100.00
56992;BME280;42885;49.754;18.636;2022-07-10T09:24:41;98326.23;;;18.22;100.00
56992;BME280;42885;49.754;18.636;2022-07-10T09:27:15;98327.30;;;18.25;100.00
56992;BME280;42885;49.754;18.636;2022-07-10T09:29:51;98322.60;;;18.42;100.00
56992;BME280;42885;49.754;18.636;2022-07-10T09:32:24;98328.24;;;18.43;100.00
56992;BME280;42885;49.754;18.636;2022-07-10T09:34:55;98316.55;;;18.70;100.00
56992;BME280;42885;49.754;18.636;2022-07-10T09:37:44;98313.14;;;18.88;100.00
56992;BME280;42885;49.754;18.636;2022-07-10T09:40:15;98299.84;;;19.35;100.00
56992;BME280;42885;49.754;18.636;2022-07-10T09:42:46;98302.00;;;19.08;100.00
56992;BME280;42885;49.754;18.636;2022-07-10T09:45:18;98302.20;;;19.10;100.00
56992;BME280;42885;49.754;18.636;2022-07-10T09:50:35;98304.81;;;19.34;100.00
56992;BME280;42885;49.754;18.636;2022-07-10T09:53:07;98305.39;;;19.28;100.00
56992;BME280;42885;49.754;18.636;2022-07-10T09:55:40;98308.49;;;18.99;100.00
56992;BME280;42885;49.754;18.636;2022-07-10T09:58:13;98308.31;;;18.87;100.00
56992;BME280;42885;49.754;18.636;2022-07-10T10:00:45;98311.89;;;18.68;100.00
56992;BME280;42885;49.754;18.636;2022-07-10T10:03:17;98304.81;;;19.34;100.00
56992;BME280;42885;49.754;18.636;2022-07-10T10:06:14;98307.41;;;18.92;100.00
56992;BME280;42885;49.754;18.636;2022-07-10T10:08:27;98297.02;;;19.37;100.00
56992;BME280;42885;49.754;18.636;2022-07-10T10:10:59;98298.36;;;18.99;100.00
56992;BME280;42885;49.754;18.636;2022-07-10T10:13:31;98298.61;;;19.44;100.00
56992;BME280;42885;49.754;18.636;2022-07-10T10:16:04;98297.10;;;18.89;100.00
56992;BME280;42885;49.754;18.636;2022-07-10T10:18:38;98287.34;;;19.04;100.00
56992;BME280;42885;49.754;18.636;2022-07-10T10:21:12;98299.45;;;18.68;100.00
56992;BME280;42885;49.754;18.636;2022-07-10T10:23:44;98300.04;;;18.19;100.00
56992;BME280;42885;49.754;18.636;2022-07-10T10:26:17;98306.39;;;17.57;100.00
56992;BME280;42885;49.754;18.636;2022-07-10T10:28:49;98309.31;;;17.18;100.00
56992;BME280;42885;49.754;18.636;2022-07-10T10:31:21;98311.88;;;16.93;100.00
56992;BME280;42885;49.754;18.636;2022-07-10T10:33:54;98310.48;;;16.73;100.00
56992;BME280;42885;49.754;18.636;2022-07-10T10:39:18;98313.95;;;16.89;100.00
56992;BME280;42885;49.754;18.636;2022-07-10T10:44:25;98311.83;;;16.83;100.00
56992;BME280;42885;49.754;18.636;2022-07-10T10:47:00;98313.72;;;16.71;100.00
56992;BME280;42885;49.754;18.636;2022-07-10T10:49:50;98306.70;;;16.82;100.00
56992;BME280;42885;49.754;18.636;2022-07-10T10:52:23;98322.86;;;16.51;100.00
56992;BME280;42885;49.754;18.636;2022-07-10T11:00:08;98329.93;;;16.35;100.00
56992;BME280;42885;49.754;18.636;2022-07-10T11:02:41;98327.22;;;16.47;100.00
56992;BME280;42885;49.754;18.636;2022-07-10T11:08:02;98330.24;;;16.42;100.00
56992;BME280;42885;49.754;18.636;2022-07-10T11:10:34;98325.05;;;16.46;100.00
56992;BME280;42885;49.754;18.636;2022-07-10T11:13:16;98325.78;;;16.43;100.00
56992;BME280;42885;49.754;18.636;2022-07-10T11:15:49;98325.05;;;16.46;100.00
56992;BME280;42885;49.754;18.636;2022-07-10T11:18:22;98329.30;;;16.59;100.00
56992;BME280;42885;49.754;18.636;2022-07-10T11:20:55;98328.73;;;16.55;100.00
56992;BME280;42885;49.754;18.636;2022-07-10T11:26:24;98332.37;;;16.64;100.00
56992;BME280;42885;49.754;18.636;2022-07-10T11:28:54;98330.98;;;16.60;100.00
56992;BME280;42885;49.754;18.636;2022-07-10T11:31:26;98329.22;;;16.70;100.00
56992;BME280;42885;49.754;18.636;2022-07-10T11:33:59;98332.23;;;16.87;100.00
56992;BME280;42885;49.754;18.636;2022-07-10T11:36:31;98327.47;;;17.43;100.00
56992;BME280;42885;49.754;18.636;2022-07-10T11:39:05;98334.89;;;17.33;100.00
56992;BME280;42885;49.754;18.636;2022-07-10T11:41:44;98333.83;;;17.56;100.00
56992;BME280;42885;49.754;18.636;2022-07-10T11:44:18;98336.25;;;17.98;100.00
56992;BME280;42885;49.754;18.636;2022-07-10T11:46:51;98341.95;;;17.74;100.00
56992;BME280;42885;49.754;18.636;2022-07-10T11:49:24;98334.01;;;17.74;100.00
56992;BME280;42885;49.754;18.636;2022-07-10T11:52:03;98335.19;;;17.66;100.00
56992;BME280;42885;49.754;18.636;2022-07-10T11:54:34;98337.98;;;17.48;100.00
56992;BME280;42885;49.754;18.636;2022-07-10T11:57:06;98336.44;;;17.36;100.00
56992;BME280;42885;49.754;18.636;2022-07-10T11:59:38;98342.83;;;17.33;100.00
56992;BME280;42885;49.754;18.636;2022-07-10T12:02:09;98350.81;;;17.28;100.00
56992;BME280;42885;49.754;18.636;2022-07-10T12:04:39;98342.55;;;17.11;100.00
56992;BME280;42885;49.754;18.636;2022-07-10T12:07:10;98338.73;;;17.35;100.00
56992;BME280;42885;49.754;18.636;2022-07-10T12:09:44;98340.70;;;17.43;100.00
56992;BME280;42885;49.754;18.636;2022-07-10T12:12:22;98348.32;;;17.61;100.00
56992;BME280;42885;49.754;18.636;2022-07-10T12:14:51;98350.92;;;17.42;100.00
56992;BME280;42885;49.754;18.636;2022-07-10T12:17:22;98345.45;;;17.49;100.00
56992;BME280;42885;49.754;18.636;2022-07-10T12:19:53;98350.58;;;17.41;100.00
56992;BME280;42885;49.754;18.636;2022-07-10T12:22:26;98344.84;;;17.36;100.00
56992;BME280;42885;49.754;18.636;2022-07-10T12:24:57;98344.85;;;17.71;100.00
56992;BME280;42885;49.754;18.636;2022-07-10T12:27:45;98345.98;;;17.78;100.00
56992;BME280;42885;49.754;18.636;2022-07-10T12:30:12;98347.28;;;18.13;100.00
56992;BME280;42885;49.754;18.636;2022-07-10T12:32:43;98348.06;;;18.39;100.00
56992;BME280;42885;49.754;18.636;2022-07-10T12:35:15;98348.03;;;18.59;100.00
56992;BME280;42885;49.754;18.636;2022-07-10T12:37:49;98346.95;;;18.66;100.00
56992;BME280;42885;49.754;18.636;2022-07-10T12:40:33;98342.73;;;18.59;100.00
56992;BME280;42885;49.754;18.636;2022-07-10T12:43:04;98346.48;;;18.66;98.26
56992;BME280;42885;49.754;18.636;2022-07-10T12:45:36;98338.92;;;18.48;94.89
56992;BME280;42885;49.754;18.636;2022-07-10T12:48:07;98338.16;;;18.22;97.09
56992;BME280;42885;49.754;18.636;2022-07-10T12:50:40;98339.14;;;17.75;97.23
56992;BME280;42885;49.754;18.636;2022-07-10T12:53:12;98348.34;;;17.71;97.20
56992;BME280;42885;49.754;18.636;2022-07-10T12:55:44;98343.50;;;17.51;99.33
56992;BME280;42885;49.754;18.636;2022-07-10T12:58:16;98344.76;;;17.57;100.00
56992;BME280;42885;49.754;18.636;2022-07-10T13:00:48;98342.05;;;17.63;100.00
56992;BME280;42885;49.754;18.636;2022-07-10T13:03:20;98353.20;;;17.66;100.00
56992;BME280;42885;49.754;18.636;2022-07-10T13:05:55;98354.51;;;17.92;96.32
56992;BME280;42885;49.754;18.636;2022-07-10T13:08:27;98354.73;;;18.43;91.35
56992;BME280;42885;49.754;18.636;2022-07-10T13:10:59;98355.73;;;19.24;90.33
56992;BME280;42885;49.754;18.636;2022-07-10T13:13:29;98337.02;;;19.67;83.88
56992;BME280;42885;49.754;18.636;2022-07-10T13:16:01;98342.75;;;20.76;72.32
56992;BME280;42885;49.754;18.636;2022-07-10T13:18:32;98334.22;;;19.87;75.03
56992;BME280;42885;49.754;18.636;2022-07-10T13:21:03;98343.80;;;19.24;77.24
56992;BME280;42885;49.754;18.636;2022-07-10T13:23:33;98350.83;;;18.81;79.52
56992;BME280;42885;49.754;18.636;2022-07-10T13:26:05;98347.30;;;20.57;67.67
56992;BME280;42885;49.754;18.636;2022-07-10T13:28:39;98340.68;;;21.18;60.32
56992;BME280;42885;49.754;18.636;2022-07-10T13:31:10;98340.14;;;23.96;48.42